Time;durP1;ratioP1;P1;durP2;ratioP2;P2;SDS_P1;SDS_P2;PMS_P1;PMS_P2;Temp;Humidity;BMP_temperature;BMP_pressure;BME280_temperature;BME280_humidity;BME280_pressure;Samples;Min_cycle;Max_cycle;Signal;HPM_P1;HPM_P2
2021/05/03 00:00:42;;;;;;;24.43;14.65;;;;;;;13.27;100.00;98922.20;1654666;86;21244;-77
2021/05/03 00:03:11;;;;;;;27.55;15.08;;;;;;;13.30;100.00;98926.02;1712065;83;21147;-80
2021/05/03 00:05:45;;;;;;;19.52;14.05;;;;;;;13.31;100.00;98922.41;1652835;85;21280;-81
2021/05/03 00:08:08;;;;;;;22.98;14.55;;;;;;;13.32;100.00;98928.92;1692225;84;21493;-77
2021/05/03 00:10:37;;;;;;;21.60;14.70;;;;;;;13.33;100.00;98924.47;1678895;85;21184;-78
2021/05/03 00:13:05;;;;;;;25.88;14.28;;;;;;;13.32;100.00;98910.87;1693070;84;21695;-80
2021/05/03 00:15:33;;;;;;;27.98;15.15;;;;;;;13.33;100.00;98914.73;1678833;85;21638;-80
2021/05/03 00:18:01;;;;;;;27.13;17.00;;;;;;;13.33;100.00;98917.38;1693131;84;22315;-80
2021/05/03 00:20:30;;;;;;;28.55;15.65;;;;;;;13.34;100.00;98912.94;1678702;85;21212;-77
2021/05/03 00:23:00;;;;;;;33.53;17.15;;;;;;;13.35;100.00;98912.84;1693062;84;21313;-82
2021/05/03 00:25:29;;;;;;;26.48;15.25;;;;;;;13.34;100.00;98911.61;1678753;85;21204;-82
2021/05/03 00:27:56;;;;;;;35.43;16.70;;;;;;;13.34;100.00;98914.26;1693110;84;21193;-81
2021/05/03 00:30:25;;;;;;;35.78;18.30;;;;;;;13.33;100.00;98914.73;1693086;84;21424;-82
2021/05/03 00:32:53;;;;;;;29.50;16.97;;;;;;;13.33;100.00;98916.55;1676659;84;21207;-82
2021/05/03 00:35:21;;;;;;;43.35;18.07;;;;;;;13.33;100.00;98921.83;1663661;86;21214;-83
2021/05/03 00:37:50;;;;;;;26.55;16.32;;;;;;;13.31;100.00;98925.89;1663901;86;21708;-83
2021/05/03 00:40:18;;;;;;;22.45;14.53;;;;;;;13.30;100.00;98922.05;1663730;86;21198;-84
2021/05/03 00:42:46;;;;;;;28.50;15.15;;;;;;;13.30;100.00;98923.38;1664004;86;22141;-85
2021/05/03 00:45:17;;;;;;;27.70;15.68;;;;;;;13.32;100.00;98927.60;1663567;85;21694;-83
2021/05/03 00:47:46;;;;;;;28.67;15.88;;;;;;;13.33;100.00;98927.12;1663753;86;21195;-83
2021/05/03 00:50:16;;;;;;;24.55;14.58;;;;;;;13.33;100.00;98929.28;1663571;86;21151;-80
2021/05/03 00:52:44;;;;;;;23.62;14.10;;;;;;;13.32;100.00;98925.41;1663836;86;21183;-80
2021/05/03 00:55:13;;;;;;;24.10;14.07;;;;;;;13.33;100.00;98921.83;1663586;86;22385;-80
2021/05/03 00:57:41;;;;;;;26.33;15.23;;;;;;;13.31;100.00;98923.25;1663685;86;21251;-80
2021/05/03 01:00:12;;;;;;;23.83;14.00;;;;;;;13.29;100.00;98932.23;1663585;86;21159;-81
2021/05/03 01:02:40;;;;;;;23.60;14.10;;;;;;;13.28;100.00;98938.48;1663995;86;21205;-80
2021/05/03 01:05:10;;;;;;;25.20;13.83;;;;;;;13.27;100.00;98934.94;1669233;84;21240;-81
2021/05/03 01:07:39;;;;;;;20.97;12.78;;;;;;;13.25;100.00;98938.19;1627736;88;21459;-78
2021/05/03 01:10:09;;;;;;;21.85;13.43;;;;;;;13.23;100.00;98940.92;1699291;84;21214;-79
2021/05/03 01:12:37;;;;;;;27.50;13.93;;;;;;;13.20;100.00;98941.14;1699816;84;21132;-78
2021/05/03 01:15:07;;;;;;;22.52;13.75;;;;;;;13.19;100.00;98947.36;1699640;84;21696;-79
2021/05/03 01:17:39;;;;;;;26.90;13.48;;;;;;;13.18;100.00;98947.00;1699777;84;21200;-78
2021/05/03 01:20:12;;;;;;;21.55;12.43;;;;;;;13.17;100.00;98945.29;1699463;84;21296;-77
2021/05/03 01:22:41;;;;;;;16.95;12.25;;;;;;;13.17;100.00;98945.77;1699556;84;21463;-78
2021/05/03 01:25:10;;;;;;;22.60;12.88;;;;;;;13.16;100.00;98937.48;1627191;88;21791;-78
2021/05/03 01:27:38;;;;;;;25.62;11.38;;;;;;;13.13;100.00;98935.86;1714727;83;21166;-76
2021/05/03 01:30:08;;;;;;;20.65;11.25;;;;;;;13.13;100.00;98935.02;1720550;83;21142;-76
2021/05/03 01:32:35;;;;;;;18.87;12.33;;;;;;;13.13;100.00;98945.59;1721875;83;21244;-79
2021/05/03 01:35:04;;;;;;;16.57;10.25;;;;;;;13.10;100.00;98940.52;1721863;83;22222;-79
2021/05/03 01:37:32;;;;;;;18.42;11.12;;;;;;;13.08;100.00;98943.26;1722100;83;21582;-78
2021/05/03 01:40:01;;;;;;;17.00;10.95;;;;;;;13.05;99.90;98939.51;1720841;83;21118;-77
2021/05/03 01:42:29;;;;;;;17.80;11.08;;;;;;;13.04;99.91;98942.23;1721024;83;21198;-79
2021/05/03 01:45:00;;;;;;;19.45;10.75;;;;;;;13.03;99.84;98945.36;1720863;83;21824;-79
2021/05/03 01:47:30;;;;;;;19.57;10.63;;;;;;;12.99;99.14;98942.55;1720690;83;21258;-79
2021/05/03 01:49:58;;;;;;;17.57;9.93;;;;;;;12.96;98.80;98940.11;1720643;83;21201;-79
2021/05/03 01:52:29;;;;;;;14.13;9.75;;;;;;;12.94;98.66;98942.00;1720787;83;21202;-79
2021/05/03 01:54:57;;;;;;;16.97;9.80;;;;;;;12.92;98.49;98938.13;1720491;83;21176;-79
2021/05/03 01:57:28;;;;;;;12.53;9.80;;;;;;;12.90;98.35;98945.79;1691727;84;21219;-81
2021/05/03 01:59:56;;;;;;;17.65;9.70;;;;;;;12.86;97.83;98950.89;1691620;84;21162;-80
2021/05/03 02:02:24;;;;;;;13.90;8.50;;;;;;;12.80;97.08;98953.47;1691727;84;21818;-81
2021/05/03 02:04:53;;;;;;;13.83;9.13;;;;;;;12.75;96.62;98952.94;1691573;84;21242;-78
2021/05/03 02:07:21;;;;;;;13.00;8.55;;;;;;;12.70;96.25;98946.63;1677746;84;21290;-82
2021/05/03 02:09:48;;;;;;;10.53;7.58;;;;;;;12.66;95.24;98946.44;1676696;85;21369;-82
2021/05/03 02:12:17;;;;;;;9.93;7.20;;;;;;;12.63;94.30;98950.61;1676654;85;21206;-80
2021/05/03 02:14:45;;;;;;;13.08;6.78;;;;;;;12.58;92.58;98954.87;1676785;85;21690;-78
2021/05/03 02:17:13;;;;;;;11.70;7.67;;;;;;;12.57;91.64;98952.31;1677673;85;21226;-81
2021/05/03 02:19:43;;;;;;;14.65;7.72;;;;;;;12.54;90.79;98956.48;1678980;85;21671;-82
2021/05/03 02:22:11;;;;;;;8.98;5.95;;;;;;;12.47;90.50;98949.87;1678259;85;21378;-81
2021/05/03 02:24:38;;;;;;;10.25;5.03;;;;;;;12.41;86.53;98959.52;1677206;85;21540;-78
2021/05/03 02:27:09;;;;;;;5.60;4.20;;;;;;;12.36;84.12;98950.09;1676247;85;21150;-79
2021/05/03 02:29:37;;;;;;;8.20;4.17;;;;;;;12.33;83.35;98950.30;1616311;88;21253;-77
2021/05/03 02:32:06;;;;;;;7.85;4.50;;;;;;;12.27;81.49;98955.95;1675155;85;21207;-79
2021/05/03 02:34:35;;;;;;;8.50;4.45;;;;;;;12.25;81.50;98965.75;1616317;88;21497;-70
2021/05/03 02:37:03;;;;;;;8.08;4.65;;;;;;;12.21;82.87;98964.72;1675038;85;21186;-73
2021/05/03 02:39:31;;;;;;;5.75;4.45;;;;;;;12.15;82.38;98968.12;1616011;88;21673;-74
2021/05/03 02:42:00;;;;;;;8.75;4.83;;;;;;;12.10;81.89;98974.61;1675326;85;21171;-73
2021/05/03 02:44:29;;;;;;;5.65;3.92;;;;;;;12.03;81.66;98970.66;1675268;85;21571;-73
2021/05/03 02:46:57;;;;;;;5.58;3.80;;;;;;;11.98;81.51;98976.70;1616137;88;21817;-73
2021/05/03 02:49:28;;;;;;;4.35;3.35;;;;;;;11.92;79.43;98985.84;1675593;85;21188;-73
2021/05/03 02:51:55;;;;;;;7.87;3.52;;;;;;;11.87;79.36;98992.72;1616100;88;21196;-73
2021/05/03 02:54:24;;;;;;;6.35;4.03;;;;;;;11.82;77.18;98989.45;1675090;85;21203;-72
2021/05/03 02:56:52;;;;;;;4.55;2.92;;;;;;;11.77;75.63;99007.35;1675551;85;21223;-71
2021/05/03 02:59:20;;;;;;;4.58;3.10;;;;;;;11.71;74.85;99002.44;1615896;88;21606;-73
2021/05/03 03:01:48;;;;;;;7.67;2.62;;;;;;;11.70;74.71;99013.94;1683053;83;21250;-72
2021/05/03 03:04:17;;;;;;;5.30;2.98;;;;;;;11.64;73.56;99011.66;1685662;85;21211;-73
2021/05/03 03:06:46;;;;;;;4.00;2.72;;;;;;;11.63;72.41;99012.61;1685870;84;21195;-73
2021/05/03 03:09:14;;;;;;;3.72;2.70;;;;;;;11.61;71.09;99014.00;1685890;84;21728;-73
2021/05/03 03:11:47;;;;;;;;;;;;;;;11.58;69.34;99015.52;1688674;85;21375;-72
2021/05/03 03:14:15;;;;;;;4.08;2.70;;;;;;;11.59;70.17;99037.45;1685622;85;20252;-71
2021/05/03 03:16:42;;;;;;;7.97;2.30;;;;;;;11.52;68.69;99037.80;1685908;84;21191;-72
2021/05/03 03:19:11;;;;;;;3.37;2.50;;;;;;;11.52;67.22;99049.66;1686329;85;21210;-72
2021/05/03 03:21:40;;;;;;;3.40;2.30;;;;;;;11.62;67.35;99057.04;1686038;85;21654;-72
2021/05/03 03:24:09;;;;;;;2.00;1.80;;;;;;;11.80;67.05;99065.22;1685761;85;22261;-74
2021/05/03 03:26:37;;;;;;;3.77;2.30;;;;;;;11.83;63.63;99071.63;1686107;85;21187;-74
2021/05/03 03:29:05;;;;;;;5.05;2.37;;;;;;;11.89;63.80;99076.58;1685771;84;21218;-75
2021/05/03 03:31:33;;;;;;;3.62;2.40;;;;;;;12.08;62.02;99078.13;1686197;84;21852;-77
2021/05/03 03:34:02;;;;;;;10.53;2.70;;;;;;;12.09;61.47;99076.69;1685945;85;21208;-78
2021/05/03 03:36:30;;;;;;;3.62;2.40;;;;;;;12.20;61.12;99080.02;1685033;85;21207;-78
2021/05/03 03:39:02;;;;;;;4.53;2.58;;;;;;;12.25;60.38;99088.50;1671589;83;21589;-78
2021/05/03 03:41:28;;;;;;;3.12;2.20;;;;;;;12.37;60.97;99089.06;1679379;83;21210;-82
2021/05/03 03:43:56;;;;;;;6.55;2.65;;;;;;;12.51;59.47;99079.45;1682254;85;21614;-76
2021/05/03 03:46:26;;;;;;;6.10;2.25;;;;;;;12.51;60.14;99089.53;1686046;85;21685;-76
2021/05/03 03:48:56;;;;;;;3.75;2.30;;;;;;;12.51;59.23;99087.37;1668216;83;21188;-75
2021/05/03 03:51:24;;;;;;;3.33;2.65;;;;;;;12.45;59.80;99095.70;1684930;83;21296;-77
2021/05/03 03:53:54;;;;;;;5.20;2.53;;;;;;;12.60;59.90;99110.58;1707635;83;21506;-77
2021/05/03 03:56:23;;;;;;;6.78;2.90;;;;;;;12.69;59.00;99112.65;1684322;83;21637;-76
2021/05/03 03:58:51;;;;;;;3.98;2.55;;;;;;;12.66;58.56;99108.05;1684708;84;21189;-68
2021/05/03 04:01:20;;;;;;;7.37;2.85;;;;;;;12.74;58.23;99120.28;1677144;84;21287;-70
2021/05/03 04:09:27;;;;;;;5.80;2.45;;;;;;;12.77;56.83;99131.53;1792084;79;21048;-71
2021/05/03 04:12:01;;;;;;;2.98;2.47;;;;;;;12.90;56.36;99137.36;1768417;77;21198;-71
2021/05/03 04:25:32;;;;;;;4.15;2.60;;;;;;;13.32;54.49;99172.19;1887020;76;22578;-70
2021/05/03 04:27:53;;;;;;;4.08;2.02;;;;;;;13.46;54.94;99181.89;1837122;77;21146;-70
2021/05/03 04:30:21;;;;;;;2.60;1.90;;;;;;;13.59;52.63;99193.35;1833215;76;21935;-70
2021/05/03 04:32:49;;;;;;;3.70;1.90;;;;;;;13.70;53.73;99190.50;1837552;78;21238;-70
2021/05/03 04:35:18;;;;;;;2.62;1.87;;;;;;;14.04;52.99;99191.31;1755784;81;21682;-70
2021/05/03 04:37:46;;;;;;;2.50;1.65;;;;;;;14.43;51.45;99175.02;1791541;79;21207;-70
2021/05/03 04:40:14;;;;;;;3.33;1.80;;;;;;;14.77;49.97;99171.41;1795808;79;21180;-69
2021/05/03 04:42:42;;;;;;;1.82;1.35;;;;;;;14.82;49.05;99181.21;1796234;79;22455;-70
2021/05/03 04:45:14;;;;;;;2.92;1.80;;;;;;;14.94;49.25;99182.64;1795893;79;21224;-70
2021/05/03 04:47:42;;;;;;;2.70;1.90;;;;;;;15.26;48.23;99191.81;1796366;79;21663;-71
2021/05/03 04:50:12;;;;;;;4.50;1.92;;;;;;;15.57;47.28;99186.94;1795489;79;21167;-69
2021/05/03 04:52:39;;;;;;;5.00;1.77;;;;;;;15.43;47.72;99191.92;1764450;81;21137;-70
2021/05/03 04:55:08;;;;;;;2.55;1.70;;;;;;;15.65;48.28;99203.16;1764064;81;21839;-70
2021/05/03 04:57:36;;;;;;;2.27;1.32;;;;;;;15.94;46.35;99212.14;1764265;81;21137;-70
2021/05/03 05:00:06;;;;;;;2.27;1.40;;;;;;;16.15;45.41;99219.87;1767965;79;21165;-70
2021/05/03 05:02:33;;;;;;;3.58;1.60;;;;;;;16.18;44.46;99189.57;1781151;79;21122;-70
2021/05/03 05:05:02;;;;;;;4.15;1.52;;;;;;;16.44;45.81;99191.57;1764010;81;21169;-70
2021/05/03 05:07:30;;;;;;;2.20;1.20;;;;;;;16.69;44.15;99200.33;1763934;81;21500;-70
2021/05/03 05:09:58;;;;;;;2.45;1.40;;;;;;;16.56;42.93;99216.36;1764062;81;21145;-70
2021/05/03 05:12:27;;;;;;;1.10;1.00;;;;;;;15.93;43.51;99217.95;1764340;81;21612;-70
2021/05/03 05:14:55;;;;;;;4.15;1.50;;;;;;;15.85;44.29;99227.42;1763514;81;21129;-69
2021/05/03 05:17:23;;;;;;;1.90;1.37;;;;;;;15.99;44.52;99219.31;1764817;80;21170;-70
2021/05/03 05:19:51;;;;;;;3.10;1.55;;;;;;;16.22;43.20;99210.09;1768752;80;21248;-70
2021/05/03 05:22:21;;;;;;;3.55;1.22;;;;;;;16.47;43.13;99211.29;1764413;79;21211;-71
2021/05/03 05:24:50;;;;;;;1.92;1.30;;;;;;;16.76;42.58;99205.53;1765525;80;21685;-73
2021/05/03 05:27:18;;;;;;;2.77;1.25;;;;;;;17.06;42.70;99198.83;1758993;80;21206;-71
2021/05/03 05:29:46;;;;;;;1.55;1.02;;;;;;;17.27;42.70;99211.75;1764724;80;21133;-72
2021/05/03 05:32:14;;;;;;;1.70;1.40;;;;;;;17.24;41.61;99201.36;1769756;80;21671;-71
2021/05/03 05:34:44;;;;;;;2.50;1.27;;;;;;;17.10;42.02;99208.27;1768310;80;21202;-72
2021/05/03 05:37:12;;;;;;;2.92;1.32;;;;;;;16.89;41.65;99208.97;1768671;80;21187;-72
2021/05/03 05:39:42;;;;;;;7.25;1.47;;;;;;;17.19;42.36;99190.24;1753523;80;21551;-71
2021/05/03 05:42:10;;;;;;;1.40;1.10;;;;;;;17.47;40.37;99194.69;1775484;79;21203;-72
2021/05/03 05:44:38;;;;;;;1.40;0.95;;;;;;;17.57;39.74;99200.95;1763050;79;21884;-72
2021/05/03 05:47:06;;;;;;;5.05;1.10;;;;;;;17.34;39.16;99208.95;1785035;80;21246;-71
2021/05/03 05:49:35;;;;;;;3.70;1.00;;;;;;;16.99;40.25;99201.95;1756802;80;21210;-72
2021/05/03 05:52:03;;;;;;;1.80;1.10;;;;;;;17.28;40.35;99198.83;1782595;79;21197;-72
2021/05/03 05:54:31;;;;;;;4.67;1.17;;;;;;;17.68;39.47;99200.09;1776929;80;21198;-71
2021/05/03 05:57:01;;;;;;;1.72;1.00;;;;;;;18.08;39.42;99197.67;1749299;81;22118;-73
2021/05/03 05:59:29;;;;;;;1.45;0.98;;;;;;;18.27;38.25;99196.14;1789850;78;21222;-72
2021/05/03 06:01:57;;;;;;;4.58;0.90;;;;;;;18.59;37.56;99196.12;1777275;79;21645;-72
2021/05/03 06:04:27;;;;;;;2.42;1.27;;;;;;;19.00;38.07;99192.59;1754787;81;28358;-72
2021/05/03 06:06:56;;;;;;;1.47;1.00;;;;;;;19.35;37.02;99201.99;1730856;80;21227;-72
2021/05/03 06:09:44;;;;;;;1.83;1.10;;;;;;;19.72;36.61;99212.59;1856662;76;28383;-72
2021/05/03 06:12:13;;;;;;;2.08;1.00;;;;;;;19.76;35.86;99209.52;1841938;76;21130;-72
2021/05/03 06:14:42;;;;;;;1.75;1.10;;;;;;;19.76;36.24;99229.55;1841782;76;21183;-72
2021/05/03 06:17:10;;;;;;;1.42;0.90;;;;;;;19.34;35.25;99234.98;1848865;77;21192;-73
2021/05/03 06:19:40;;;;;;;1.12;0.90;;;;;;;19.14;35.33;99227.88;1780786;80;21202;-72
2021/05/03 06:22:09;;;;;;;1.57;0.90;;;;;;;19.08;35.88;99224.77;1776967;79;21166;-72
2021/05/03 06:24:37;;;;;;;1.30;0.90;;;;;;;19.15;36.20;99222.91;1781035;79;21193;-72
2021/05/03 06:27:11;;;;;;;3.50;1.10;;;;;;;19.24;35.34;99230.12;1783097;79;21818;-72
2021/05/03 06:29:35;;;;;;;1.37;0.80;;;;;;;19.16;35.66;99228.59;1779395;78;21678;-72
2021/05/03 06:32:04;;;;;;;1.15;0.90;;;;;;;19.05;35.71;99238.39;1787959;79;21622;-71
2021/05/03 06:34:33;;;;;;;2.08;1.05;;;;;;;19.21;36.32;99232.56;1774788;79;21193;-71
2021/05/03 06:37:00;;;;;;;1.37;0.95;;;;;;;19.45;35.36;99252.75;1786250;79;21681;-73
2021/05/03 06:41:01;;;;;;;1.00;0.85;;;;;;;19.82;34.78;99257.03;1794213;79;22683;-71
2021/05/03 06:43:29;;;;;;;2.60;1.07;;;;;;;19.69;34.34;99253.29;1765568;80;21788;-71
2021/05/03 06:45:58;;;;;;;1.35;1.10;;;;;;;19.28;34.51;99243.55;1767662;80;21194;-72
2021/05/03 06:48:27;;;;;;;1.45;0.75;;;;;;;18.80;35.38;99244.98;1775546;78;21654;-72
2021/05/03 06:50:55;;;;;;;2.12;0.90;;;;;;;18.52;36.26;99249.11;1713817;83;21202;-70
2021/05/03 06:53:25;;;;;;;1.70;1.00;;;;;;;18.55;36.58;99244.84;1743060;81;21193;-73
2021/05/03 06:55:53;;;;;;;4.10;1.15;;;;;;;18.69;36.92;99246.84;1705996;83;21187;-72
2021/05/03 06:58:22;;;;;;;2.05;1.10;;;;;;;18.60;37.21;99246.63;1721738;83;21830;-73
2021/05/03 07:00:50;;;;;;;2.42;0.98;;;;;;;18.22;37.95;99256.02;1726029;81;21203;-73
2021/05/03 07:03:18;;;;;;;1.25;0.85;;;;;;;17.86;38.37;99256.38;1758723;81;21191;-72
2021/05/03 07:05:47;;;;;;;2.92;1.30;;;;;;;17.67;38.48;99257.83;1720582;83;21187;-74
2021/05/03 07:08:15;;;;;;;2.10;0.98;;;;;;;17.80;40.10;99269.66;1751928;81;21591;-72
2021/05/03 07:10:45;;;;;;;3.87;1.57;;;;;;;17.99;41.16;99266.37;1752290;81;21207;-71
2021/05/03 07:13:13;;;;;;;1.57;1.07;;;;;;;18.19;38.56;99280.23;1752373;81;21231;-72
2021/05/03 07:15:42;;;;;;;3.10;1.12;;;;;;;18.14;36.84;99285.60;1783139;80;21374;-72
2021/05/03 07:18:10;;;;;;;5.22;0.93;;;;;;;18.13;37.46;99280.77;1752249;81;21764;-74
2021/05/03 07:20:38;;;;;;;3.08;0.70;;;;;;;18.31;36.04;99290.87;1722504;83;21570;-72
2021/05/03 07:23:08;;;;;;;2.20;0.80;;;;;;;18.22;34.96;99286.67;1752330;81;21206;-73
2021/05/03 07:25:36;;;;;;;2.65;0.88;;;;;;;17.86;35.98;99300.32;1752375;81;21168;-73
2021/05/03 07:28:05;;;;;;;2.22;0.90;;;;;;;17.79;35.86;99290.12;1757710;80;21189;-73
2021/05/03 07:30:34;;;;;;;3.40;0.72;;;;;;;17.74;36.05;99288.31;1740739;81;21211;-72
2021/05/03 07:33:04;;;;;;;1.93;0.80;;;;;;;17.89;36.40;99301.39;1742125;81;21239;-72
2021/05/03 07:35:32;;;;;;;4.42;1.00;;;;;;;17.99;35.29;99310.33;1742698;81;21201;-73
2021/05/03 07:38:01;;;;;;;0.70;0.70;;;;;;;17.87;36.08;99304.66;1739382;81;21195;-72
2021/05/03 07:40:29;;;;;;;1.65;0.80;;;;;;;18.10;36.41;99306.30;1722862;82;21161;-73
2021/05/03 07:42:58;;;;;;;1.20;0.80;;;;;;;18.27;35.12;99302.74;1716839;82;21175;-72
2021/05/03 07:45:31;;;;;;;1.12;0.70;;;;;;;18.28;35.66;99305.30;1712027;83;21158;-72
2021/05/03 07:48:04;;;;;;;1.00;0.88;;;;;;;18.24;36.10;99286.06;1764780;80;22605;-74
2021/05/03 07:50:32;;;;;;;1.60;0.90;;;;;;;18.54;35.81;99300.49;1765713;80;21124;-74
2021/05/03 07:53:01;;;;;;;3.58;1.00;;;;;;;18.68;34.23;99314.47;1754969;80;21199;-74
2021/05/03 07:55:29;;;;;;;3.10;0.80;;;;;;;18.42;34.83;99302.83;1750035;82;21175;-72
2021/05/03 07:57:59;;;;;;;1.30;0.80;;;;;;;18.11;35.82;99301.36;1750519;80;21476;-74
2021/05/03 08:00:28;;;;;;;1.72;0.95;;;;;;;18.14;35.66;99306.42;1750488;82;21673;-72
2021/05/03 08:05:35;;;;;;;1.35;0.82;;;;;;;18.17;35.43;99304.83;1875106;74;22829;-73
2021/05/03 08:08:04;;;;;;;2.05;0.80;;;;;;;18.05;35.92;99303.17;1850665;77;21158;-73
2021/05/03 08:10:32;;;;;;;1.95;0.60;;;;;;;18.24;35.75;99306.05;1850745;77;21609;-72
2021/05/03 08:13:01;;;;;;;4.95;1.00;;;;;;;18.28;35.53;99305.79;1828545;77;21569;-74
2021/05/03 08:15:29;;;;;;;1.62;0.80;;;;;;;18.32;35.17;99305.91;1825253;78;21159;-73
2021/05/03 08:17:57;;;;;;;3.87;0.70;;;;;;;18.16;35.34;99312.48;1788960;80;21132;-73
2021/05/03 08:20:29;;;;;;;1.20;0.88;;;;;;;17.82;36.00;99331.17;1788807;80;21167;-72
2021/05/03 08:22:57;;;;;;;4.92;0.90;;;;;;;17.75;35.71;99328.61;1788772;80;21768;-73
2021/05/03 08:25:28;;;;;;;1.52;0.93;;;;;;;17.71;37.04;99327.16;1758286;79;21183;-71
2021/05/03 08:27:56;;;;;;;6.42;1.40;;;;;;;17.75;36.26;99333.09;1815939;78;21160;-73
2021/05/03 08:30:27;;;;;;;2.58;0.80;;;;;;;17.85;35.89;99331.91;1788913;80;21216;-72
2021/05/03 08:32:55;;;;;;;2.40;0.98;;;;;;;18.07;35.81;99350.53;1787826;79;21143;-74
2021/05/03 08:35:22;;;;;;;5.90;1.00;;;;;;;18.14;34.83;99347.72;1787146;80;22386;-72
2021/05/03 08:37:50;;;;;;;1.32;0.70;;;;;;;17.85;35.63;99346.55;1815926;79;21141;-72
2021/05/03 08:40:20;;;;;;;3.02;0.72;;;;;;;17.80;35.59;99346.39;1815653;79;21692;-73
2021/05/03 08:42:49;;;;;;;5.10;1.12;;;;;;;17.93;35.70;99340.98;1815953;79;21196;-73
2021/05/03 08:45:17;;;;;;;1.57;1.20;;;;;;;18.13;35.54;99335.84;1815829;79;21145;-74
2021/05/03 08:48:06;;;;;;;1.85;1.10;;;;;;;18.09;35.59;99340.59;1816844;78;22212;-74
2021/05/03 08:50:54;;;;;;;3.42;1.10;;;;;;;17.90;35.95;99348.35;1790098;79;21201;-74
2021/05/03 08:53:28;;;;;;;5.03;1.17;;;;;;;17.86;36.09;99341.61;1777731;79;21191;-72
2021/05/03 08:55:53;;;;;;;2.92;1.05;;;;;;;17.50;37.13;99343.01;1812926;77;21132;-73
2021/05/03 08:58:22;;;;;;;2.70;1.32;;;;;;;17.16;38.13;99335.46;1790353;79;21220;-73
2021/05/03 09:00:50;;;;;;;4.33;1.20;;;;;;;17.22;38.20;99339.48;1813051;79;21371;-73
2021/05/03 09:03:19;;;;;;;1.72;1.02;;;;;;;17.39;37.25;99337.21;1774882;80;21541;-73
2021/05/03 09:05:47;;;;;;;3.17;1.02;;;;;;;17.18;37.34;99356.14;1778920;78;21195;-73
2021/05/03 09:08:26;;;;;;;1.67;0.93;;;;;;;16.97;37.35;99360.81;1758953;80;21187;-73
2021/05/03 09:10:57;;;;;;;4.37;1.25;;;;;;;16.78;38.28;99360.48;1759065;80;21182;-73
2021/05/03 09:13:38;;;;;;;4.75;1.00;;;;;;;17.23;37.89;99346.48;1828955;78;22705;-72
2021/05/03 09:16:22;;;;;;;3.05;1.15;;;;;;;17.23;37.76;99344.69;1806953;79;21579;-73
2021/05/03 09:18:51;;;;;;;1.20;0.90;;;;;;;17.10;37.97;99354.58;1807302;79;21440;-72
2021/05/03 09:21:33;;;;;;;3.90;1.47;;;;;;;17.34;38.41;99343.35;1801731;79;21646;-73
2021/05/03 09:24:21;;;;;;;3.70;1.30;;;;;;;17.21;38.09;99354.60;1788786;79;21222;-73
2021/05/03 09:26:56;;;;;;;3.25;1.00;;;;;;;16.67;38.58;99363.09;1793828;77;21638;-72
2021/05/03 09:29:37;;;;;;;2.30;1.17;;;;;;;16.91;38.49;99363.08;1778197;79;21234;-70
2021/05/03 09:32:20;;;;;;;1.98;1.30;;;;;;;16.90;37.23;99376.86;1783674;79;21437;-72
2021/05/03 09:34:52;;;;;;;2.22;1.02;;;;;;;16.98;37.99;99374.48;1788426;79;21159;-73
2021/05/03 09:37:31;;;;;;;6.72;1.20;;;;;;;17.39;38.12;99367.81;1782322;77;21183;-71
2021/05/03 09:40:15;;;;;;;3.55;1.10;;;;;;;17.30;36.28;99355.22;1778146;79;21610;-71
2021/05/03 09:42:53;;;;;;;2.30;1.00;;;;;;;17.28;37.53;99341.67;1794269;79;21196;-71
2021/05/03 09:45:32;;;;;;;1.15;0.90;;;;;;;17.58;36.54;99334.44;1787524;79;22139;-70
2021/05/03 09:48:01;;;;;;;2.22;0.90;;;;;;;17.45;36.07;99348.34;1796439;79;21579;-73
2021/05/03 09:50:31;;;;;;;2.98;1.10;;;;;;;17.19;36.53;99347.22;1788412;79;21167;-80
2021/05/03 09:53:09;;;;;;;3.80;1.10;;;;;;;16.83;37.26;99355.69;1787320;79;21179;-77
2021/05/03 09:55:49;;;;;;;5.92;1.30;;;;;;;16.76;38.10;99360.58;1794239;77;21634;-76
2021/05/03 09:58:25;;;;;;;1.22;1.12;;;;;;;16.87;37.83;99370.45;1803115;79;21393;-76
2021/05/03 10:00:56;;;;;;;2.85;1.12;;;;;;;16.78;37.88;99361.81;1783623;79;21163;-75
2021/05/03 10:06:18;;;;;;;2.02;1.00;;;;;;;16.72;38.01;99368.41;1845765;76;22639;-74
2021/05/03 10:08:52;;;;;;;1.17;1.07;;;;;;;16.87;37.75;99373.12;1809898;79;21185;-76
2021/05/03 10:11:17;;;;;;;1.15;1.02;;;;;;;17.13;36.84;99383.59;1809711;77;21276;-76
2021/05/03 10:13:48;;;;;;;2.50;1.32;;;;;;;17.21;35.85;99394.52;1785223;79;21119;-77
2021/05/03 10:16:17;;;;;;;1.62;1.30;;;;;;;16.93;36.60;99385.97;1812335;79;21147;-75
2021/05/03 10:18:46;;;;;;;4.87;1.17;;;;;;;16.85;37.40;99408.28;1743949;77;21181;-76
2021/05/03 10:21:14;;;;;;;4.20;1.15;;;;;;;16.79;38.06;99411.38;1818736;78;21170;-74
2021/05/03 10:23:45;;;;;;;1.17;0.90;;;;;;;16.55;38.13;99410.88;1790215;78;21189;-76
2021/05/03 10:26:14;;;;;;;7.62;1.10;;;;;;;16.31;39.39;99427.27;1818171;78;21221;-76
2021/05/03 10:28:54;;;;;;;3.70;1.40;;;;;;;16.35;39.25;99428.75;1815965;79;21191;-76
2021/05/03 10:31:24;;;;;;;3.35;1.07;;;;;;;16.30;37.75;99426.91;1799658;79;21182;-76
2021/05/03 10:33:52;;;;;;;1.98;1.07;;;;;;;16.26;38.44;99428.08;1801218;78;21593;-76
2021/05/03 10:36:36;;;;;;;2.17;1.22;;;;;;;16.19;37.84;99429.48;1797147;79;22278;-76
2021/05/03 10:39:32;;;;;;;1.52;1.20;;;;;;;16.14;36.98;99414.72;1801962;79;21123;-77
2021/05/03 10:42:11;;;;;;;2.58;1.17;;;;;;;16.40;37.61;99421.77;1801315;79;21126;-76
2021/05/03 10:45:16;;;;;;;3.22;1.10;;;;;;;16.97;36.85;99402.03;1804460;79;21135;-77
2021/05/03 10:47:54;;;;;;;2.75;1.35;;;;;;;17.33;36.31;99400.22;1785753;79;21162;-77
2021/05/03 10:50:46;;;;;;;4.05;1.55;;;;;;;17.27;35.59;99398.50;1794659;79;21427;-75
2021/05/03 10:53:36;;;;;;;7.47;1.35;;;;;;;17.26;36.32;99395.00;1800419;79;21584;-77
2021/05/03 10:56:07;;;;;;;2.17;1.37;;;;;;;17.32;36.53;99393.21;1793917;79;21589;-76
2021/05/03 10:58:57;;;;;;;1.62;1.10;;;;;;;17.37;36.14;99404.34;1795555;79;21653;-79
2021/05/03 11:01:26;;;;;;;5.17;1.20;;;;;;;17.53;35.38;99425.77;1786058;77;21131;-78
2021/05/03 11:04:06;;;;;;;2.25;1.20;;;;;;;17.90;35.93;99414.94;1776973;80;21329;-78
2021/05/03 11:06:48;;;;;;;1.87;1.20;;;;;;;18.20;33.66;99433.84;1781713;80;21171;-77
2021/05/03 11:09:31;;;;;;;4.30;1.50;;;;;;;18.08;33.82;99433.47;1782585;80;21587;-78
2021/05/03 11:12:16;;;;;;;2.75;1.27;;;;;;;17.88;33.56;99435.06;1775219;80;21172;-78
2021/05/03 11:15:21;;;;;;;2.40;1.30;;;;;;;17.42;34.20;99446.58;1776003;80;21131;-77
2021/05/03 11:21:05;;;;;;;2.77;1.10;;;;;;;17.21;35.73;99418.45;1827377;76;22435;-75
2021/05/03 11:23:34;;;;;;;2.80;1.22;;;;;;;17.42;34.88;99444.41;1727038;81;21202;-74
2021/05/03 11:26:03;;;;;;;3.85;1.30;;;;;;;17.25;34.95;99449.66;1739686;82;21371;-75
2021/05/03 11:28:40;;;;;;;3.80;1.35;;;;;;;17.24;34.74;99463.45;1736029;81;21185;-75
2021/05/03 11:31:17;;;;;;;3.55;1.57;;;;;;;16.89;34.88;99443.00;1740907;81;21151;-75
2021/05/03 11:33:51;;;;;;;4.85;1.52;;;;;;;16.61;37.41;99436.63;1743089;81;21181;-77
2021/05/03 11:36:25;;;;;;;1.90;1.50;;;;;;;16.37;36.29;99433.48;1800407;79;21170;-76
2021/05/03 11:41:48;;;;;;;7.72;2.65;;;;;;;16.19;38.86;99434.80;1805786;79;21199;-77
2021/05/03 11:46:36;;;;;;;2.77;1.30;;;;;;;16.61;37.34;99423.34;1799532;77;21166;-76
2021/05/03 11:49:15;;;;;;;3.60;2.08;;;;;;;16.68;36.80;99429.91;1796114;79;21120;-76
2021/05/03 11:51:48;;;;;;;2.83;1.65;;;;;;;16.64;35.92;99439.93;1798988;79;21180;-76
2021/05/03 11:54:43;;;;;;;6.55;1.32;;;;;;;16.19;36.05;99442.77;1792105;79;21187;-74
2021/05/03 11:57:16;;;;;;;4.03;2.00;;;;;;;16.22;36.68;99434.56;1795664;79;21182;-75
2021/05/03 11:59:44;;;;;;;2.80;1.90;;;;;;;16.47;37.90;99438.52;1807650;79;21129;-74
2021/05/03 12:02:14;;;;;;;2.83;1.37;;;;;;;16.34;36.04;99435.03;1778330;79;21190;-74
2021/05/03 12:04:45;;;;;;;2.15;1.50;;;;;;;16.21;37.14;99443.51;1773880;80;21328;-73
2021/05/03 12:07:25;;;;;;;5.00;1.40;;;;;;;16.23;36.32;99436.28;1779708;80;21202;-75
2021/05/03 12:10:12;;;;;;;6.97;2.12;;;;;;;16.21;37.27;99430.23;1770844;80;21217;-75
2021/05/03 12:12:52;;;;;;;5.97;1.67;;;;;;;16.45;36.98;99416.52;1769241;80;21228;-76
2021/05/03 12:15:26;;;;;;;4.05;1.50;;;;;;;16.78;35.37;99434.92;1765172;80;21214;-75
2021/05/03 12:18:00;;;;;;;3.22;1.85;;;;;;;16.80;36.56;99407.78;1773468;80;21192;-76